Terminal Aerodrome Forecast
Issued by NWS

Home | Current Version | Previous Version | Text Only | Print | Product List | Glossary On
Versions: 1 2 3 4 5 6 7 8 9 10 11 12 13 14 15 16 17 18 19 20
000
FTUS43 KLSX 152100 AAB
TAFUIN
TAF AMD
KUIN 152125Z 1521/1618 15013G23KT 5SM BR OVC008
     FM152200 16013G23KT P6SM SCT010 BKN020
      TEMPO 1522/1524 4SM -SHRA BR
     FM160000 18014G24KT P6SM VCSH BKN015
     FM160300 23013G23KT P6SM OVC012
     FM160900 29016G26KT P6SM OVC010=

USA.gov is the U.S. government's official web portal to all federal, state and local government web resources and services.